createdAt,value
2022-09-26T00:01:11.832Z,10.54
2022-09-26T00:03:40.165Z,10.47
2022-09-26T00:06:09.574Z,10.49
2022-09-26T00:08:38.250Z,10.48
2022-09-26T00:11:10.199Z,10.53
2022-09-26T00:13:40.386Z,10.54
2022-09-26T00:16:12.298Z,10.53
2022-09-26T00:18:40.579Z,10.53
2022-09-26T00:21:10.923Z,10.50
2022-09-26T00:23:39.128Z,10.52
2022-09-26T00:26:07.375Z,10.41
2022-09-26T00:28:35.785Z,10.37
2022-09-26T00:31:05.523Z,10.38
2022-09-26T00:33:35.145Z,10.48
2022-09-26T00:36:03.865Z,10.37
2022-09-26T00:38:31.988Z,10.30
2022-09-26T00:41:00.286Z,10.31
2022-09-26T00:43:30.943Z,10.30
2022-09-26T00:46:03.034Z,10.31
2022-09-26T00:48:32.184Z,10.23
2022-09-26T00:51:01.866Z,10.22
2022-09-26T00:53:35.030Z,10.08
2022-09-26T00:56:07.457Z,10.16
2022-09-26T00:58:39.868Z,10.08
2022-09-26T01:01:08.814Z,10.07
2022-09-26T01:03:39.202Z,9.94
2022-09-26T01:06:08.615Z,9.92
2022-09-26T01:08:41.370Z,9.87
2022-09-26T01:11:13.613Z,9.81
2022-09-26T01:13:45.726Z,9.79
2022-09-26T01:16:13.673Z,9.75
2022-09-26T01:18:42.191Z,9.71
2022-09-26T01:21:38.033Z,9.76
2022-09-26T01:24:39.450Z,9.59
2022-09-26T01:27:37.854Z,9.55
2022-09-26T01:30:15.715Z,9.54
2022-09-26T01:33:13.551Z,9.54
2022-09-26T01:35:52.701Z,9.47
2022-09-26T01:38:28.165Z,9.49
2022-09-26T01:41:12.877Z,9.49
2022-09-26T01:43:48.501Z,9.51
2022-09-26T01:46:26.727Z,9.58
2022-09-26T01:48:59.368Z,9.53
2022-09-26T01:51:34.610Z,9.63
2022-09-26T01:54:07.647Z,9.59
2022-09-26T01:56:39.791Z,9.67
2022-09-26T01:59:12.858Z,9.59
2022-09-26T02:01:45.689Z,9.65
2022-09-26T02:04:16.733Z,9.61
2022-09-26T02:06:50.828Z,9.56
2022-09-26T02:09:25.334Z,9.64
2022-09-26T02:11:56.826Z,9.65
2022-09-26T02:14:30.816Z,9.65
2022-09-26T02:17:03.275Z,9.68
2022-09-26T02:19:37.924Z,9.63
2022-09-26T02:22:06.288Z,9.56
2022-09-26T02:24:34.158Z,9.64
2022-09-26T02:27:02.687Z,9.65
2022-09-26T02:29:31.027Z,9.72
2022-09-26T02:32:05.925Z,9.67
2022-09-26T02:34:34.476Z,9.65
2022-09-26T02:37:02.312Z,9.62
2022-09-26T02:39:30.108Z,9.60
2022-09-26T02:42:09.130Z,9.57
2022-09-26T02:45:06.915Z,9.55
2022-09-26T02:48:04.456Z,9.59
2022-09-26T02:50:42.471Z,9.65
2022-09-26T02:53:26.690Z,9.65
2022-09-26T02:56:04.864Z,9.71
2022-09-26T02:58:38.938Z,9.75
2022-09-26T03:01:15.962Z,9.71
2022-09-26T03:03:51.622Z,9.75
2022-09-26T03:06:24.288Z,9.75
2022-09-26T03:08:53.997Z,9.69
2022-09-26T03:11:25.816Z,9.80
2022-09-26T03:13:55.610Z,9.60
2022-09-26T03:16:25.360Z,9.54
2022-09-26T03:18:59.648Z,9.40
2022-09-26T03:21:28.738Z,9.45
2022-09-26T03:23:58.094Z,9.36
2022-09-26T03:26:28.853Z,9.28
2022-09-26T03:28:57.324Z,9.34
2022-09-26T03:31:25.859Z,9.42
2022-09-26T03:33:55.421Z,9.33
2022-09-26T03:36:23.564Z,9.35
2022-09-26T03:38:51.520Z,9.23
2022-09-26T03:41:19.650Z,9.21
2022-09-26T03:43:47.433Z,9.16
2022-09-26T03:46:15.868Z,9.06
2022-09-26T03:48:43.833Z,9.10
2022-09-26T03:51:15.184Z,9.03
2022-09-26T03:53:44.576Z,8.93
2022-09-26T03:56:14.903Z,8.79
2022-09-26T03:58:43.677Z,8.75
2022-09-26T04:01:13.732Z,8.82
2022-09-26T04:03:49.266Z,8.66
2022-09-26T04:06:21.175Z,8.65
2022-09-26T04:08:51.009Z,8.60
2022-09-26T04:11:21.081Z,8.53
2022-09-26T04:13:52.555Z,8.46
2022-09-26T04:16:22.838Z,8.45
2022-09-26T04:18:50.875Z,8.39
2022-09-26T04:21:20.039Z,8.30
2022-09-26T04:23:47.841Z,8.23
2022-09-26T04:26:22.712Z,8.30
2022-09-26T04:28:54.960Z,8.41
2022-09-26T04:31:23.933Z,8.35
2022-09-26T04:33:52.388Z,8.44
2022-09-26T04:36:21.969Z,8.34
2022-09-26T04:38:49.782Z,8.25
2022-09-26T04:41:19.711Z,8.15
2022-09-26T04:43:47.635Z,8.14
2022-09-26T04:46:21.622Z,8.08
2022-09-26T04:48:51.033Z,8.13
2022-09-26T04:51:21.612Z,8.12
2022-09-26T04:53:50.461Z,8.14
2022-09-26T04:56:20.738Z,8.03
2022-09-26T04:58:48.828Z,8.02
2022-09-26T05:01:18.777Z,8.04
2022-09-26T05:03:46.943Z,7.91
2022-09-26T05:06:16.263Z,7.96
2022-09-26T05:08:48.561Z,7.87
2022-09-26T05:11:17.811Z,7.77
2022-09-26T05:13:48.051Z,7.68
2022-09-26T05:16:18.568Z,7.68
2022-09-26T05:18:50.481Z,7.76
2022-09-26T05:21:18.414Z,7.69
2022-09-26T05:24:05.302Z,7.71
2022-09-26T05:26:40.369Z,7.68
2022-09-26T05:29:09.206Z,7.74
2022-09-26T05:31:38.458Z,7.70
2022-09-26T05:34:07.485Z,7.71
2022-09-26T05:36:35.865Z,7.65
2022-09-26T05:39:26.382Z,7.75
2022-09-26T05:41:54.244Z,7.75
2022-09-26T05:44:22.276Z,7.79
2022-09-26T05:46:50.436Z,7.77
2022-09-26T05:49:18.344Z,7.74
2022-09-26T05:51:46.636Z,7.74
2022-09-26T05:54:16.631Z,7.72
2022-09-26T05:56:44.450Z,7.78
2022-09-26T05:59:12.339Z,7.79
2022-09-26T06:01:40.344Z,7.82
2022-09-26T06:04:08.171Z,7.87
2022-09-26T06:06:35.995Z,7.92
2022-09-26T06:09:07.242Z,7.91
2022-09-26T06:11:36.694Z,8.02
2022-09-26T06:14:04.500Z,8.10
2022-09-26T06:16:33.072Z,8.11
2022-09-26T06:19:02.588Z,8.28
2022-09-26T06:21:30.440Z,8.45
2022-09-26T06:23:58.335Z,8.57
2022-09-26T06:26:29.217Z,8.64
2022-09-26T06:29:00.342Z,8.61
2022-09-26T06:31:29.268Z,8.65
2022-09-26T06:33:58.482Z,8.78
2022-09-26T06:36:26.665Z,8.72
2022-09-26T06:38:55.615Z,8.96
2022-09-26T06:41:24.748Z,9.21
2022-09-26T06:43:53.086Z,9.22
2022-09-26T06:46:22.678Z,9.13
2022-09-26T06:48:50.833Z,9.16
2022-09-26T06:51:20.132Z,9.42
2022-09-26T06:53:47.983Z,9.54
2022-09-26T06:56:15.877Z,9.66
2022-09-26T06:58:43.713Z,9.69
2022-09-26T07:01:11.927Z,9.91
2022-09-26T07:03:45.442Z,9.89
2022-09-26T07:06:14.088Z,9.77
2022-09-26T07:11:50.359Z,9.78
2022-09-26T07:14:18.283Z,9.99
2022-09-26T07:16:48.978Z,10.17
2022-09-26T07:19:18.698Z,10.18
2022-09-26T07:21:46.798Z,10.21
2022-09-26T07:24:14.705Z,10.11
2022-09-26T07:26:42.984Z,10.46
2022-09-26T07:29:11.194Z,10.63
2022-09-26T07:31:39.160Z,11.12
2022-09-26T07:34:08.558Z,10.87
2022-09-26T07:36:39.741Z,11.00
2022-09-26T07:39:07.586Z,11.19
2022-09-26T07:41:35.406Z,10.87
2022-09-26T07:47:08.505Z,11.16
2022-09-26T07:49:53.737Z,11.00
2022-09-26T07:52:23.171Z,11.23
2022-09-26T07:54:51.375Z,11.24
2022-09-26T07:57:19.486Z,10.98
2022-09-26T07:59:49.748Z,11.13
2022-09-26T08:02:22.555Z,11.75
2022-09-26T08:04:50.504Z,12.11
2022-09-26T08:07:18.330Z,12.38
2022-09-26T08:09:47.602Z,12.42
2022-09-26T08:12:15.726Z,12.47
2022-09-26T08:14:43.528Z,12.39
2022-09-26T08:17:14.412Z,12.57
2022-09-26T08:19:42.409Z,12.69
2022-09-26T08:22:10.376Z,12.96
2022-09-26T08:24:38.941Z,13.23
2022-09-26T08:27:09.945Z,13.64
2022-09-26T08:29:37.773Z,13.80
2022-09-26T08:32:05.655Z,14.08
2022-09-26T08:34:35.125Z,14.62
2022-09-26T08:37:03.001Z,14.52
2022-09-26T08:39:33.452Z,15.04
2022-09-26T08:42:28.630Z,15.38
2022-09-26T08:45:39.046Z,15.27
2022-09-26T08:48:19.493Z,15.37
2022-09-26T08:50:50.445Z,15.49
2022-09-26T08:53:23.193Z,15.56
2022-09-26T08:55:53.781Z,15.48
2022-09-26T08:58:29.188Z,16.20
2022-09-26T09:01:02.826Z,15.57
2022-09-26T09:03:34.309Z,15.31
2022-09-26T09:06:07.643Z,15.97
2022-09-26T09:08:39.839Z,16.31
2022-09-26T09:11:21.232Z,14.91
2022-09-26T09:14:07.948Z,14.58
2022-09-26T09:16:53.656Z,14.77
2022-09-26T09:19:31.685Z,14.94
2022-09-26T09:22:17.442Z,15.38
2022-09-26T09:24:58.420Z,15.39
2022-09-26T09:28:00.348Z,15.86
2022-09-26T09:30:38.529Z,16.01
2022-09-26T09:33:12.967Z,16.16
2022-09-26T09:35:46.092Z,16.34
2022-09-26T09:38:18.166Z,16.29
2022-09-26T09:40:53.763Z,16.03
2022-09-26T09:43:27.808Z,15.74
2022-09-26T09:46:02.854Z,15.12
2022-09-26T09:48:31.357Z,15.24
2022-09-26T09:51:13.384Z,14.53
2022-09-26T09:53:53.760Z,15.25
2022-09-26T09:56:33.081Z,14.90
2022-09-26T09:59:20.908Z,15.40
2022-09-26T10:01:56.714Z,15.64
2022-09-26T10:04:36.376Z,15.44
2022-09-26T10:07:05.636Z,15.46
2022-09-26T10:09:40.907Z,14.69
2022-09-26T10:12:17.072Z,14.81
2022-09-26T10:14:52.131Z,14.85
2022-09-26T10:17:23.808Z,14.95
2022-09-26T10:19:52.580Z,15.29
2022-09-26T10:22:27.279Z,15.07
2022-09-26T10:25:01.847Z,14.88
2022-09-26T10:27:36.979Z,15.43
2022-09-26T10:30:10.100Z,16.30
2022-09-26T10:32:50.789Z,16.77
2022-09-26T10:35:24.810Z,16.00
2022-09-26T10:38:00.786Z,15.19
2022-09-26T10:40:45.376Z,15.00
2022-09-26T10:43:25.705Z,14.84
2022-09-26T10:45:57.191Z,15.71
2022-09-26T10:48:37.766Z,16.36
2022-09-26T10:51:08.817Z,17.64
2022-09-26T10:53:40.179Z,18.00
2022-09-26T10:56:12.653Z,17.41
2022-09-26T10:58:43.621Z,17.77
2022-09-26T11:01:21.048Z,17.61
2022-09-26T11:03:51.383Z,17.10
2022-09-26T11:06:28.119Z,16.10
2022-09-26T11:09:03.054Z,15.93
2022-09-26T11:11:35.257Z,15.78
2022-09-26T11:14:07.508Z,15.43
2022-09-26T11:16:50.308Z,15.46
2022-09-26T11:19:29.110Z,15.29
2022-09-26T11:22:08.011Z,15.53
2022-09-26T11:24:45.791Z,16.81
2022-09-26T11:27:23.682Z,16.77
2022-09-26T11:29:59.231Z,16.56
2022-09-26T11:32:31.197Z,15.77
2022-09-26T11:35:03.572Z,15.81
2022-09-26T11:38:05.512Z,15.83
2022-09-26T11:40:51.662Z,15.55
2022-09-26T11:43:38.369Z,15.52
2022-09-26T11:46:25.473Z,15.59
2022-09-26T11:49:24.555Z,16.69
2022-09-26T11:52:10.018Z,17.88
2022-09-26T11:54:52.104Z,16.89
2022-09-26T11:57:35.689Z,16.59
2022-09-26T12:00:10.121Z,17.15
2022-09-26T12:02:56.066Z,18.50
2022-09-26T12:05:36.379Z,19.63
2022-09-26T12:08:18.711Z,18.83
2022-09-26T12:10:58.680Z,18.70
2022-09-26T12:13:39.085Z,17.45
2022-09-26T12:16:15.686Z,17.17
2022-09-26T12:18:55.732Z,18.03
2022-09-26T12:21:32.258Z,19.05
2022-09-26T12:24:11.511Z,19.36
2022-09-26T12:26:49.066Z,20.76
2022-09-26T12:29:37.421Z,21.00
2022-09-26T12:32:22.481Z,20.25
2022-09-26T12:35:05.117Z,20.71
2022-09-26T12:37:54.175Z,21.23
2022-09-26T12:40:36.248Z,20.22
2022-09-26T12:43:31.739Z,21.61
2022-09-26T12:46:16.497Z,21.86
2022-09-26T12:48:58.841Z,19.07
2022-09-26T12:51:42.067Z,18.27
2022-09-26T12:54:28.933Z,17.58
2022-09-26T12:57:06.201Z,17.01
2022-09-26T13:00:00.836Z,16.54
2022-09-26T13:02:52.318Z,16.37
2022-09-26T13:05:40.134Z,16.41
2022-09-26T13:08:18.531Z,16.99
2022-09-26T13:10:59.115Z,16.78
2022-09-26T13:13:49.021Z,17.14
2022-09-26T13:16:31.755Z,16.99
2022-09-26T13:19:07.584Z,16.85
2022-09-26T13:21:45.504Z,16.29
2022-09-26T13:24:19.793Z,17.62
2022-09-26T13:26:53.027Z,18.63
2022-09-26T13:29:27.634Z,17.99
2022-09-26T13:32:05.027Z,19.87
2022-09-26T13:34:39.956Z,20.23
2022-09-26T13:37:15.494Z,19.72
2022-09-26T13:39:52.157Z,18.40
2022-09-26T13:42:24.853Z,17.58
2022-09-26T13:45:04.100Z,17.37
2022-09-26T13:47:41.319Z,18.14
2022-09-26T13:50:23.490Z,18.71
2022-09-26T13:53:04.620Z,17.21
2022-09-26T13:55:32.663Z,16.34
2022-09-26T13:58:07.517Z,15.47
2022-09-26T14:00:53.404Z,15.22
2022-09-26T14:03:45.172Z,15.00
2022-09-26T14:06:33.799Z,14.77
2022-09-26T14:09:25.764Z,15.01
2022-09-26T14:12:22.084Z,14.80
2022-09-26T14:15:15.447Z,14.60
2022-09-26T14:18:28.077Z,14.36
2022-09-26T14:21:17.301Z,14.10
2022-09-26T14:23:46.881Z,13.67
2022-09-26T14:26:21.080Z,13.24
2022-09-26T14:28:54.664Z,13.25
2022-09-26T14:31:44.013Z,13.39
2022-09-26T14:34:18.498Z,13.57
2022-09-26T14:36:47.579Z,13.48
2022-09-26T14:39:30.248Z,13.50
2022-09-26T14:41:58.929Z,13.63
2022-09-26T14:44:36.327Z,13.66
2022-09-26T14:47:13.814Z,13.78
2022-09-26T14:49:44.537Z,13.78
2022-09-26T14:52:20.724Z,13.58
2022-09-26T14:54:49.312Z,13.57
2022-09-26T14:57:25.174Z,13.51
2022-09-26T14:59:53.107Z,13.63
2022-09-26T15:02:28.820Z,13.87
2022-09-26T15:05:25.875Z,14.04
2022-09-26T15:07:55.496Z,14.02
2022-09-26T15:10:27.692Z,14.20
2022-09-26T15:13:02.133Z,14.13
2022-09-26T15:15:40.477Z,13.94
2022-09-26T15:18:14.821Z,13.74
2022-09-26T15:20:50.888Z,13.65
2022-09-26T15:23:28.510Z,13.76
2022-09-26T15:26:00.556Z,13.86
2022-09-26T15:28:28.468Z,13.85
2022-09-26T15:31:26.412Z,13.52
2022-09-26T15:33:59.685Z,13.34
2022-09-26T15:36:31.857Z,13.33
2022-09-26T15:39:00.345Z,13.20
2022-09-26T15:41:46.404Z,12.88
2022-09-26T15:44:23.275Z,12.32
2022-09-26T15:46:52.092Z,12.16
2022-09-26T15:49:22.226Z,12.03
2022-09-26T15:51:55.481Z,12.00
2022-09-26T15:54:29.630Z,11.90
2022-09-26T15:57:00.701Z,11.90
2022-09-26T15:59:33.932Z,11.89
2022-09-26T16:02:05.354Z,11.88
2022-09-26T16:04:34.100Z,11.82
2022-09-26T16:07:05.572Z,11.80
2022-09-26T16:09:35.144Z,11.77
2022-09-26T16:12:10.361Z,11.72
2022-09-26T16:14:46.943Z,11.81
2022-09-26T16:17:23.753Z,11.82
2022-09-26T16:19:53.951Z,11.73
2022-09-26T16:22:40.483Z,11.66
2022-09-26T16:25:29.898Z,11.65
2022-09-26T16:28:32.159Z,11.59
2022-09-26T16:31:15.902Z,11.54
2022-09-26T16:33:52.254Z,11.51
2022-09-26T16:36:23.561Z,11.54
2022-09-26T16:38:58.808Z,11.62
2022-09-26T16:44:28.805Z,11.42
2022-09-26T16:47:01.978Z,11.28
2022-09-26T16:49:45.738Z,11.27
2022-09-26T16:52:32.896Z,11.27
2022-09-26T16:55:03.789Z,11.27
2022-09-26T16:57:34.290Z,11.30
2022-09-26T17:00:22.388Z,11.31
2022-09-26T17:02:50.368Z,11.31
2022-09-26T17:05:20.605Z,11.25
2022-09-26T17:07:49.889Z,11.23
2022-09-26T17:10:21.184Z,11.21
2022-09-26T17:12:50.717Z,11.21
2022-09-26T17:15:23.065Z,11.11
2022-09-26T17:17:53.688Z,11.14
2022-09-26T17:20:22.592Z,11.08
2022-09-26T17:22:50.583Z,11.10
2022-09-26T17:25:20.039Z,11.11
2022-09-26T17:27:52.012Z,11.08
2022-09-26T17:30:20.801Z,11.07
2022-09-26T17:32:51.474Z,11.03
2022-09-26T17:35:25.019Z,11.07
2022-09-26T17:37:53.288Z,11.05
2022-09-26T17:40:24.441Z,11.04
2022-09-26T17:42:55.449Z,10.99
2022-09-26T17:45:29.055Z,11.03
2022-09-26T17:47:59.286Z,11.01
2022-09-26T17:50:29.973Z,11.06
2022-09-26T17:52:58.952Z,11.06
2022-09-26T17:55:29.479Z,11.06
2022-09-26T17:57:58.427Z,10.97
2022-09-26T18:00:30.163Z,10.98
2022-09-26T18:03:03.904Z,10.96
2022-09-26T18:05:35.036Z,10.93
2022-09-26T18:08:08.349Z,10.89
2022-09-26T18:10:45.625Z,10.90
2022-09-26T18:13:16.941Z,10.91
2022-09-26T18:15:44.876Z,10.94
2022-09-26T18:18:17.600Z,10.92
2022-09-26T18:20:46.219Z,10.92
2022-09-26T18:23:20.761Z,10.90
2022-09-26T18:25:52.851Z,10.87
2022-09-26T18:28:23.463Z,10.94
2022-09-26T18:30:57.714Z,10.96
2022-09-26T18:33:29.102Z,10.88
2022-09-26T18:35:58.294Z,10.90
2022-09-26T18:38:26.334Z,10.96
2022-09-26T18:40:58.571Z,10.95
2022-09-26T18:43:31.996Z,10.95
2022-09-26T18:46:00.776Z,11.00
2022-09-26T18:48:32.887Z,10.95
2022-09-26T18:51:01.355Z,10.90
2022-09-26T18:53:36.990Z,10.93
2022-09-26T18:56:24.894Z,10.93
2022-09-26T18:58:52.949Z,10.94
2022-09-26T19:01:27.840Z,10.97
2022-09-26T19:03:58.200Z,10.93
2022-09-26T19:06:31.470Z,10.94
2022-09-26T19:09:01.673Z,10.97
2022-09-26T19:11:34.663Z,11.04
2022-09-26T19:14:12.700Z,11.03
2022-09-26T19:16:40.607Z,11.03
2022-09-26T19:19:08.490Z,11.02
2022-09-26T19:21:38.330Z,10.97
2022-09-26T19:24:13.263Z,11.01
2022-09-26T19:26:44.531Z,10.99
2022-09-26T19:29:16.421Z,10.95
2022-09-26T19:31:44.786Z,10.99
2022-09-26T19:34:15.897Z,11.01
2022-09-26T19:36:44.052Z,11.07
2022-09-26T19:39:15.270Z,11.09
2022-09-26T19:41:44.706Z,11.04
2022-09-26T19:44:13.592Z,11.00
2022-09-26T19:46:42.393Z,11.03
2022-09-26T19:49:17.308Z,11.06
2022-09-26T19:51:45.588Z,11.04
2022-09-26T19:54:18.171Z,11.16
2022-09-26T19:56:48.235Z,11.17
2022-09-26T19:59:17.371Z,11.03
2022-09-26T20:01:47.545Z,11.08
2022-09-26T20:04:17.756Z,11.06
2022-09-26T20:06:46.876Z,11.13
2022-09-26T20:09:18.103Z,11.09
2022-09-26T20:11:47.718Z,11.14
2022-09-26T20:14:25.452Z,11.14
2022-09-26T20:16:56.706Z,11.15
2022-09-26T20:19:32.016Z,11.10
2022-09-26T20:22:02.375Z,11.04
2022-09-26T20:24:33.455Z,10.95
2022-09-26T20:27:05.449Z,10.88
2022-09-26T20:29:54.182Z,10.82
2022-09-26T20:32:22.072Z,10.80
2022-09-26T20:34:50.037Z,10.68
2022-09-26T20:37:19.895Z,10.71
2022-09-26T20:39:48.066Z,10.65
2022-09-26T20:42:19.989Z,10.60
2022-09-26T20:44:51.108Z,10.58
2022-09-26T20:47:21.737Z,10.59
2022-09-26T20:49:53.749Z,10.55
2022-09-26T20:52:24.195Z,10.51
2022-09-26T20:54:52.408Z,10.49
2022-09-26T20:57:22.335Z,10.57
2022-09-26T20:59:50.769Z,10.60
2022-09-26T21:02:26.599Z,10.51
2022-09-26T21:04:54.935Z,10.61
2022-09-26T21:07:24.151Z,10.50
2022-09-26T21:09:52.427Z,10.48
2022-09-26T21:12:21.718Z,10.49
2022-09-26T21:14:49.650Z,10.50
2022-09-26T21:17:20.338Z,10.44
2022-09-26T21:19:49.009Z,10.39
2022-09-26T21:22:16.840Z,10.45
2022-09-26T21:24:49.207Z,10.39
2022-09-26T21:27:17.202Z,10.37
2022-09-26T21:29:46.522Z,10.38
2022-09-26T21:32:18.955Z,10.40
2022-09-26T21:34:59.315Z,10.47
2022-09-26T21:37:27.161Z,10.41
2022-09-26T21:39:55.073Z,10.44
2022-09-26T21:42:23.053Z,10.31
2022-09-26T21:44:54.875Z,10.31
2022-09-26T21:47:24.647Z,10.33
2022-09-26T21:49:53.552Z,10.32
2022-09-26T21:52:25.697Z,10.32
2022-09-26T21:54:54.096Z,10.33
2022-09-26T21:57:24.945Z,10.27
2022-09-26T21:59:54.969Z,10.25
2022-09-26T22:02:22.833Z,10.20
2022-09-26T22:04:51.996Z,10.17
2022-09-26T22:07:20.021Z,10.17
2022-09-26T22:09:48.057Z,10.13
2022-09-26T22:12:15.868Z,10.11
2022-09-26T22:14:43.669Z,10.06
2022-09-26T22:17:13.456Z,10.11
2022-09-26T22:19:41.357Z,10.12
2022-09-26T22:22:09.511Z,10.06
2022-09-26T22:24:37.326Z,10.09
2022-09-26T22:27:05.323Z,9.99
2022-09-26T22:29:33.190Z,10.03
2022-09-26T22:32:01.416Z,9.93
2022-09-26T22:34:32.234Z,9.90
2022-09-26T22:37:00.141Z,9.90
2022-09-26T22:39:27.944Z,9.84
2022-09-26T22:41:55.812Z,9.70
2022-09-26T22:44:23.658Z,9.69
2022-09-26T22:46:51.446Z,9.65
2022-09-26T22:49:19.224Z,9.59
2022-09-26T22:51:48.432Z,9.62
2022-09-26T22:54:16.507Z,9.54
2022-09-26T22:56:44.367Z,9.58
2022-09-26T22:59:12.560Z,9.55
2022-09-26T23:01:40.489Z,9.50
2022-09-26T23:04:08.323Z,9.55
2022-09-26T23:06:36.165Z,9.54
2022-09-26T23:09:05.327Z,9.50
2022-09-26T23:11:33.383Z,9.59
2022-09-26T23:14:01.204Z,9.58
2022-09-26T23:16:29.158Z,9.56
2022-09-26T23:18:57.104Z,9.53
2022-09-26T23:21:26.872Z,9.53
2022-09-26T23:23:57.384Z,9.52
2022-09-26T23:26:31.740Z,9.59
2022-09-26T23:29:00.562Z,9.53
2022-09-26T23:31:29.609Z,9.50
2022-09-26T23:33:58.243Z,9.51
2022-09-26T23:36:26.391Z,9.56
2022-09-26T23:38:54.691Z,9.53
2022-09-26T23:41:22.576Z,9.50
2022-09-26T23:43:51.889Z,9.49
2022-09-26T23:46:20.206Z,9.49
2022-09-26T23:48:48.138Z,9.47
2022-09-26T23:51:16.006Z,9.50
2022-09-26T23:53:43.823Z,9.53
2022-09-26T23:56:14.897Z,9.53
2022-09-26T23:58:43.007Z,9.48
